Time;durP1;ratioP1;P1;durP2;ratioP2;P2;SDS_P1;SDS_P2;PMS_P1;PMS_P2;Temp;Humidity;BMP_temperature;BMP_pressure;BME280_temperature;BME280_humidity;BME280_pressure;Samples;Min_cycle;Max_cycle;Signal;HPM_P1;HPM_P2
2022/03/06 00:00:56;;;;;;;17.77;10.07;;;-1.20;70.00;;;-2.76;59.44;97563.31;5049555;28;20454;-77
2022/03/06 00:03:22;;;;;;;21.73;11.70;;;-1.20;70.10;;;-2.58;59.76;97561.38;5050037;28;20408;-77
2022/03/06 00:05:48;;;;;;;23.88;11.95;;;-1.00;70.60;;;-2.50;59.54;97555.38;5049996;28;20456;-77
2022/03/06 00:08:14;;;;;;;21.40;11.82;;;-1.00;70.80;;;-2.53;59.66;97563.47;5049645;28;20405;-77
2022/03/06 00:10:40;;;;;;;18.70;10.65;;;-1.00;70.40;;;-2.47;59.73;97562.81;5049285;28;20898;-77
2022/03/06 00:13:06;;;;;;;20.23;11.38;;;-0.90;70.50;;;-2.30;59.45;97555.81;5049510;28;20406;-76
2022/03/06 00:15:33;;;;;;;19.87;10.67;;;-0.80;70.60;;;-2.34;59.33;97557.94;5049908;28;20769;-76
2022/03/06 00:18:00;;;;;;;24.17;12.85;;;-0.80;70.20;;;-2.24;59.87;97555.94;5050462;28;20496;-76
2022/03/06 00:20:26;;;;;;;19.88;10.75;;;-0.80;70.60;;;-2.35;59.44;97557.13;5049766;28;20397;-76
2022/03/06 00:22:52;;;;;;;19.75;10.90;;;-0.80;70.30;;;-2.39;59.31;97560.19;5049939;28;20413;-76
2022/03/06 00:25:18;;;;;;;17.20;10.00;;;-0.80;70.40;;;-2.43;59.89;97564.13;5049723;28;20750;-76
2022/03/06 00:27:44;;;;;;;20.85;11.98;;;-0.90;70.40;;;-2.29;59.54;97558.25;5049361;28;20498;-76
2022/03/06 00:30:11;;;;;;;23.67;12.50;;;-0.80;70.70;;;-2.30;60.14;97558.41;5049420;28;20468;-76
2022/03/06 00:32:37;;;;;;;21.73;12.05;;;-0.80;70.80;;;-2.46;59.89;97565.25;5049894;28;20454;-76
2022/03/06 00:35:07;;;;;;;18.80;11.38;;;-0.90;70.70;;;-2.57;59.67;97560.41;5049879;28;20422;-76
2022/03/06 00:37:33;;;;;;;20.33;10.90;;;-1.00;70.80;;;-2.59;60.14;97559.75;5049954;28;20476;-76
2022/03/06 00:39:59;;;;;;;21.52;11.93;;;-1.00;71.10;;;-2.66;60.48;97558.78;5049038;28;20398;-76
2022/03/06 00:42:25;;;;;;;22.70;11.88;;;-1.10;71.10;;;-2.66;60.14;97553.63;5048777;28;20404;-77
2022/03/06 00:44:52;;;;;;;23.13;12.52;;;-1.10;71.30;;;-2.66;60.32;97553.63;5049772;28;20431;-76
2022/03/06 00:47:18;;;;;;;20.42;11.23;;;-1.10;71.40;;;-2.79;60.54;97561.09;5049985;28;20405;-77
2022/03/06 00:49:44;;;;;;;22.98;12.05;;;-1.20;71.40;;;-2.84;60.68;97566.72;5049845;28;20409;-77
2022/03/06 00:52:12;;;;;;;20.73;11.35;;;-1.30;71.70;;;-2.89;60.91;97566.41;5049608;28;20437;-77
2022/03/06 00:54:38;;;;;;;21.80;11.15;;;-1.30;71.70;;;-2.86;60.90;97570.47;5049911;28;20419;-77
2022/03/06 00:57:04;;;;;;;22.93;12.37;;;-1.30;71.90;;;-2.74;61.18;97569.16;5048593;28;20417;-77
2022/03/06 00:59:34;;;;;;;23.10;12.30;;;-1.30;72.30;;;-2.88;61.44;97572.41;5050038;28;20405;-77
2022/03/06 01:02:01;;;;;;;24.80;13.20;;;-1.30;72.70;;;-2.81;61.28;97574.19;5049642;28;20401;-77
2022/03/06 01:04:27;;;;;;;23.45;12.68;;;-1.30;73.00;;;-2.82;61.50;97580.34;5050052;28;20751;-77
2022/03/06 01:06:53;;;;;;;25.80;12.93;;;-1.40;73.00;;;-2.95;61.52;97586.97;5050051;28;20428;-77
2022/03/06 01:09:21;;;;;;;22.40;11.90;;;-1.40;73.00;;;-3.06;61.52;97580.31;5049794;28;20496;-77
2022/03/06 01:11:47;;;;;;;21.97;11.57;;;-1.50;72.90;;;-3.14;61.96;97580.31;5052841;28;20405;-77
2022/03/06 01:14:13;;;;;;;23.58;12.20;;;-1.50;73.00;;;-3.09;61.99;97583.25;5052180;28;20417;-77
2022/03/06 01:16:39;;;;;;;24.15;13.02;;;-1.50;73.20;;;-3.01;62.03;97578.09;5053477;28;20404;-76
2022/03/06 01:19:05;;;;;;;25.73;13.30;;;-1.60;73.80;;;-3.01;61.99;97578.09;5053309;28;20402;-76
2022/03/06 01:21:31;;;;;;;25.05;13.18;;;-1.60;73.90;;;-3.02;61.76;97575.66;5053111;28;20499;-76
2022/03/06 01:23:57;;;;;;;21.60;12.05;;;-1.60;74.00;;;-3.18;61.92;97584.22;5053418;28;20397;-76
2022/03/06 01:26:24;;;;;;;24.77;12.40;;;-1.60;73.70;;;-3.19;62.05;97580.00;5053313;28;20766;-76
2022/03/06 01:28:50;;;;;;;27.85;14.20;;;-1.70;73.80;;;-3.10;62.63;97584.22;5053141;28;20400;-77
2022/03/06 01:31:16;;;;;;;22.40;12.43;;;-1.70;74.40;;;-3.30;62.51;97585.47;5052805;28;20851;-76
2022/03/06 01:33:42;;;;;;;25.95;13.38;;;-1.70;74.20;;;-3.19;62.80;97583.38;5051828;28;20425;-77
2022/03/06 01:36:08;;;;;;;28.00;13.75;;;-1.70;74.60;;;-3.22;62.52;97581.09;5053518;28;20401;-77
2022/03/06 01:38:34;;;;;;;24.07;12.73;;;-1.70;74.60;;;-3.34;62.45;97584.16;5051688;28;20406;-77
2022/03/06 01:41:00;;;;;;;22.42;11.57;;;-1.80;74.30;;;-3.42;62.94;97584.97;5052509;28;20480;-77
2022/03/06 01:43:27;;;;;;;25.55;13.25;;;-1.80;75.20;;;-3.39;62.91;97582.06;5053039;28;20397;-76
2022/03/06 01:45:53;;;;;;;25.63;13.38;;;-1.80;74.60;;;-3.28;62.94;97584.34;5052943;28;20408;-77
2022/03/06 01:48:19;;;;;;;23.55;12.82;;;-1.90;74.90;;;-3.45;62.80;97579.28;5052710;28;20788;-75
2022/03/06 01:50:45;;;;;;;25.17;14.07;;;-1.90;74.70;;;-3.37;63.03;97585.28;5052427;28;20402;-76
2022/03/06 01:53:12;;;;;;;24.33;13.05;;;-1.90;75.50;;;-3.40;63.44;97575.28;5052674;28;20409;-76
2022/03/06 01:55:39;;;;;;;26.30;14.50;;;-1.90;75.50;;;-3.35;63.53;97578.19;5052829;28;20448;-77
2022/03/06 01:58:08;;;;;;;27.83;14.13;;;-1.90;75.60;;;-3.36;63.64;97573.97;5052625;28;20413;-76
2022/03/06 02:00:44;;;;;;;24.13;12.90;;;-1.90;75.80;;;-3.54;63.38;97566.34;5052186;28;20412;-76
2022/03/06 02:03:11;;;;;;;22.88;12.07;;;-1.90;75.60;;;-3.61;63.68;97567.91;5052687;28;20875;-76
2022/03/06 02:05:38;;;;;;;23.30;12.45;;;-2.00;75.40;;;-3.57;63.61;97571.81;5052589;28;20401;-76
2022/03/06 02:08:07;;;;;;;24.20;13.40;;;-2.00;75.60;;;-3.61;63.96;97562.75;5052490;28;20412;-76
2022/03/06 02:10:34;;;;;;;25.95;13.00;;;-2.00;75.60;;;-3.48;63.62;97564.09;5052203;28;20408;-76
2022/03/06 02:13:00;;;;;;;27.42;13.68;;;-2.00;76.00;;;-3.47;63.96;97563.13;5052280;28;20401;-78
2022/03/06 02:15:26;;;;;;;25.75;13.27;;;-2.00;76.30;;;-3.61;63.82;97560.16;5052591;28;20403;-77
2022/03/06 02:17:54;;;;;;;28.95;14.27;;;-2.00;76.10;;;-3.51;64.39;97562.63;5052216;28;20398;-77
2022/03/06 02:20:22;;;;;;;27.20;14.05;;;-2.10;76.80;;;-3.63;64.52;97563.91;5051761;28;20458;-76
2022/03/06 02:22:52;;;;;;;26.75;14.00;;;-2.10;76.70;;;-3.57;64.33;97560.66;5052197;28;20393;-76
2022/03/06 02:25:21;;;;;;;27.00;14.07;;;-2.10;76.80;;;-3.71;64.17;97554.34;5052134;28;20959;-76
2022/03/06 02:27:49;;;;;;;22.08;12.18;;;-2.10;76.60;;;-3.81;64.49;97556.22;5051874;28;20397;-76
2022/03/06 02:30:17;;;;;;;24.80;12.88;;;-2.20;76.50;;;-3.81;64.56;97560.59;5051849;28;20413;-76
2022/03/06 02:32:45;;;;;;;21.98;12.15;;;-2.20;76.60;;;-3.85;64.55;97559.28;5051988;28;20480;-76
2022/03/06 02:35:11;;;;;;;22.20;12.17;;;-2.30;76.60;;;-3.92;64.33;97565.09;5052245;28;20417;-76
2022/03/06 02:37:37;;;;;;;27.45;14.15;;;-2.30;76.50;;;-3.76;64.69;97559.16;5052095;28;20406;-76
2022/03/06 02:40:08;;;;;;;28.48;14.05;;;-2.30;77.20;;;-3.70;64.82;97562.91;5052113;28;20463;-76
2022/03/06 02:42:36;;;;;;;27.35;13.80;;;-2.30;77.50;;;-3.69;65.08;97569.69;5052247;28;20405;-76
2022/03/06 02:45:09;;;;;;;28.15;13.55;;;-2.20;77.70;;;-3.88;65.00;97555.25;5052221;28;20397;-76
2022/03/06 02:47:35;;;;;;;25.15;12.88;;;-2.30;78.20;;;-3.96;65.05;97558.59;5051943;28;20415;-76
2022/03/06 02:50:02;;;;;;;26.52;14.43;;;-2.30;77.40;;;-3.85;64.93;97554.13;5051865;28;20405;-76
2022/03/06 02:52:28;;;;;;;25.02;13.02;;;-2.30;77.60;;;-3.96;64.83;97563.78;5051769;28;20443;-76
2022/03/06 02:54:54;;;;;;;28.08;13.60;;;-2.40;77.40;;;-3.90;65.49;97557.16;5051882;28;20496;-76
2022/03/06 02:57:22;;;;;;;29.30;14.27;;;-2.40;77.70;;;-3.84;65.46;97553.16;5051892;28;20435;-76
2022/03/06 02:59:47;;;;;;;24.65;13.05;;;-2.30;78.20;;;-4.01;65.44;97558.28;5051772;28;20944;-76
2022/03/06 03:02:13;;;;;;;26.92;14.43;;;-2.40;77.90;;;-3.93;65.52;97560.06;5051542;28;20401;-77
2022/03/06 03:04:40;;;;;;;25.42;13.45;;;-2.40;78.20;;;-3.93;65.84;97560.06;5052144;28;20397;-77
2022/03/06 03:07:07;;;;;;;27.50;14.45;;;-2.40;78.20;;;-3.85;65.79;97561.88;5054555;28;20401;-77
2022/03/06 03:09:33;;;;;;;25.80;14.10;;;-2.40;78.50;;;-3.94;65.47;97564.44;5065335;28;20435;-77
2022/03/06 03:12:00;;;;;;;26.98;14.05;;;-2.40;78.50;;;-3.90;66.05;97568.31;5062547;28;20409;-77
2022/03/06 03:14:31;;;;;;;24.85;13.43;;;-2.40;78.70;;;-3.94;66.25;97564.44;5052013;28;20425;-77
2022/03/06 03:16:57;;;;;;;28.67;14.45;;;-2.40;78.80;;;-3.91;66.48;97565.91;5067714;28;20907;-75
2022/03/06 03:19:23;;;;;;;26.10;13.60;;;-2.40;79.00;;;-4.03;66.19;97565.38;5051575;28;20404;-77
2022/03/06 03:21:49;;;;;;;29.10;14.90;;;-2.40;78.80;;;-3.90;66.35;97565.72;5051325;28;20393;-77
2022/03/06 03:24:15;;;;;;;23.75;12.30;;;-2.40;79.10;;;-4.13;66.23;97569.00;5051945;28;20384;-77
2022/03/06 03:26:41;;;;;;;26.35;13.80;;;-2.50;78.80;;;-4.00;66.25;97569.41;5051754;28;20766;-77
2022/03/06 03:29:07;;;;;;;27.50;13.95;;;-2.50;79.30;;;-4.08;66.49;97577.94;5051285;28;20409;-77
2022/03/06 03:31:35;;;;;;;25.40;13.52;;;-2.50;79.20;;;-4.05;66.27;97572.44;5051192;28;20405;-77
2022/03/06 03:34:01;;;;;;;23.30;12.93;;;-2.50;79.20;;;-4.09;66.84;97578.91;5051208;28;20917;-78
2022/03/06 03:36:27;;;;;;;27.15;14.70;;;-2.50;79.30;;;-3.96;66.80;97574.13;5050879;28;20501;-78
2022/03/06 03:38:53;;;;;;;24.35;12.75;;;-2.50;79.90;;;-4.21;66.85;97574.19;5049410;28;20937;-77
2022/03/06 03:41:19;;;;;;;29.25;14.85;;;-2.60;79.60;;;-4.08;67.02;97577.13;5050412;28;20397;-77
2022/03/06 03:43:45;;;;;;;27.10;14.00;;;-2.60;80.10;;;-4.07;67.06;97576.19;5050734;28;20397;-77
2022/03/06 03:46:11;;;;;;;23.02;12.73;;;-2.60;80.10;;;-4.24;67.17;97577.06;5050637;28;20921;-77
2022/03/06 03:48:38;;;;;;;25.13;13.30;;;-2.70;79.90;;;-4.21;67.51;97574.19;5050422;28;20409;-77
2022/03/06 03:51:04;;;;;;;26.95;13.73;;;-2.70;80.20;;;-4.30;67.20;97579.28;5050116;28;20456;-77
2022/03/06 03:53:30;;;;;;;26.55;12.80;;;-2.70;80.20;;;-4.30;67.16;97593.97;5050640;28;20498;-77
2022/03/06 03:55:56;;;;;;;25.55;13.63;;;-2.70;80.20;;;-4.23;67.37;97591.59;5050683;28;20413;-77
2022/03/06 03:58:22;;;;;;;26.90;13.50;;;-2.70;80.30;;;-4.16;67.39;97587.44;5050647;28;20402;-78
2022/03/06 04:00:57;;;;;;;26.60;14.47;;;-2.70;80.50;;;-4.08;67.46;97588.28;5050076;28;20480;-77
2022/03/06 04:03:23;;;;;;;25.08;13.63;;;-2.70;80.80;;;-4.14;67.41;97593.28;5050562;28;20459;-77
2022/03/06 04:05:51;;;;;;;28.55;13.88;;;-2.70;80.80;;;-4.20;67.63;97597.25;5050272;28;20405;-78
2022/03/06 04:08:17;;;;;;;27.67;14.48;;;-2.60;81.00;;;-4.11;67.75;97596.34;5049046;28;20480;-77
2022/03/06 04:10:43;;;;;;;26.90;14.17;;;-2.60;81.30;;;-4.25;67.68;97606.44;5049897;28;20475;-77
2022/03/06 04:13:10;;;;;;;25.60;13.68;;;-2.70;81.10;;;-4.19;67.89;97606.63;5050491;28;20770;-77
2022/03/06 04:15:37;;;;;;;26.65;14.25;;;-2.70;81.40;;;-4.26;67.88;97610.78;5050373;28;20437;-77
2022/03/06 04:18:03;;;;;;;26.13;14.25;;;-2.70;81.20;;;-4.20;68.46;97612.75;5050294;28;20401;-77
2022/03/06 04:20:30;;;;;;;25.70;13.25;;;-2.70;81.40;;;-4.32;68.18;97608.81;5049903;28;20432;-78
2022/03/06 04:22:58;;;;;;;26.40;13.45;;;-2.80;81.30;;;-4.34;68.45;97613.31;5050507;28;20454;-77
2022/03/06 04:25:24;;;;;;;24.58;13.40;;;-2.70;81.60;;;-4.40;68.34;97614.75;5050282;28;20398;-78
2022/03/06 04:27:50;;;;;;;22.65;12.57;;;-2.80;81.60;;;-4.45;68.69;97618.75;5050214;28;20867;-77
2022/03/06 04:30:16;;;;;;;21.45;12.32;;;-2.80;81.70;;;-4.42;68.83;97624.41;5049710;28;20409;-76
2022/03/06 04:32:42;;;;;;;25.02;13.10;;;-2.90;81.70;;;-4.44;68.77;97620.38;5050050;28;20961;-76
2022/03/06 04:35:09;;;;;;;25.85;13.65;;;-2.90;81.80;;;-4.46;68.69;97620.53;5048828;28;20795;-77
2022/03/06 04:37:35;;;;;;;26.13;13.00;;;-2.80;82.10;;;-4.46;68.59;97630.84;5048773;28;20401;-77
2022/03/06 04:40:04;;;;;;;26.88;13.48;;;-2.80;82.10;;;-4.51;68.86;97621.94;5050152;28;20460;-77
2022/03/06 04:42:30;;;;;;;29.42;15.23;;;-2.90;82.10;;;-4.41;68.85;97627.81;5048291;28;20402;-76
2022/03/06 04:44:56;;;;;;;27.10;14.60;;;-2.90;82.60;;;-4.47;68.95;97629.22;5050647;28;20404;-77
2022/03/06 04:47:22;;;;;;;28.63;14.43;;;-2.90;82.60;;;-4.40;69.22;97625.09;5070976;22;20405;-68
2022/03/06 04:49:48;;;;;;;27.13;14.20;;;-2.90;82.60;;;-4.48;69.34;97635.34;5112530;28;20501;-69
2022/03/06 04:52:14;;;;;;;29.08;14.88;;;-2.90;82.80;;;-4.41;69.36;97627.81;5112859;28;20399;-68
2022/03/06 04:54:40;;;;;;;27.98;14.00;;;-2.90;83.00;;;-4.54;69.57;97630.00;5114153;28;20900;-69
2022/03/06 04:57:07;;;;;;;28.20;14.90;;;-2.90;83.20;;;-4.47;69.66;97631.00;5114081;28;20396;-69
2022/03/06 04:59:33;;;;;;;28.00;14.83;;;-2.90;83.30;;;-4.38;69.51;97633.50;5114039;28;20404;-69
2022/03/06 05:01:59;;;;;;;25.23;13.82;;;-2.90;83.20;;;-4.40;69.62;97635.41;5113760;28;20400;-69
2022/03/06 05:04:25;;;;;;;28.98;14.90;;;-2.90;83.10;;;-4.39;69.52;97639.63;5113980;28;20436;-69
2022/03/06 05:06:51;;;;;;;31.00;15.07;;;-2.90;83.20;;;-4.40;69.66;97644.94;5113999;28;20392;-69
2022/03/06 05:09:17;;;;;;;27.65;14.43;;;-2.90;83.40;;;-4.35;69.92;97645.28;5113806;28;20445;-69
2022/03/06 05:11:43;;;;;;;28.90;14.80;;;-2.80;83.70;;;-4.26;69.75;97646.16;5113414;28;20872;-69
2022/03/06 05:14:10;;;;;;;29.77;15.20;;;-2.80;83.80;;;-4.27;69.95;97635.00;5113715;28;20841;-70
2022/03/06 05:16:36;;;;;;;28.17;15.07;;;-2.80;83.80;;;-4.28;70.01;97645.53;5113729;28;20396;-70
2022/03/06 05:19:02;;;;;;;25.30;14.48;;;-2.80;83.80;;;-4.47;69.77;97644.72;5113529;28;20399;-70
2022/03/06 05:21:28;;;;;;;25.63;13.38;;;-2.80;83.70;;;-4.53;70.02;97640.19;5113491;28;20457;-70
2022/03/06 05:23:54;;;;;;;26.88;13.85;;;-2.90;83.70;;;-4.49;70.10;97643.25;5113809;28;20431;-70
2022/03/06 05:26:20;;;;;;;24.92;12.80;;;-2.90;83.80;;;-4.50;69.83;97639.03;5113752;28;20438;-69
2022/03/06 05:28:47;;;;;;;27.83;14.77;;;-2.90;83.80;;;-4.53;70.06;97647.09;5113447;28;20404;-70
2022/03/06 05:31:14;;;;;;;24.90;13.65;;;-2.90;83.70;;;-4.52;69.96;97652.13;5113151;28;20554;-70
2022/03/06 05:33:40;;;;;;;25.98;13.82;;;-2.90;83.80;;;-4.57;70.05;97650.94;5113467;28;20769;-70
2022/03/06 05:36:06;;;;;;;26.85;14.55;;;-2.90;83.80;;;-4.48;70.31;97653.44;5113545;28;20442;-69
2022/03/06 05:38:32;;;;;;;29.58;14.60;;;-3.00;83.90;;;-4.40;70.45;97660.44;5113330;28;20441;-69
2022/03/06 05:40:58;;;;;;;25.10;13.33;;;-2.90;84.20;;;-4.56;70.25;97661.13;5112887;28;20741;-69
2022/03/06 05:43:24;;;;;;;28.85;13.98;;;-3.00;84.20;;;-4.38;70.41;97661.09;5113330;28;20395;-69
2022/03/06 05:45:51;;;;;;;23.30;12.93;;;-2.90;84.50;;;-4.41;70.59;97664.78;5113233;28;20396;-70
2022/03/06 05:48:19;;;;;;;21.48;12.32;;;-2.90;84.50;;;-4.36;70.56;97665.16;5113083;28;20403;-70
2022/03/06 05:50:46;;;;;;;25.60;13.38;;;-2.80;84.50;;;-4.16;70.39;97665.78;5112789;28;20495;-69
2022/03/06 05:53:12;;;;;;;29.52;14.80;;;-2.70;84.60;;;-4.09;70.33;97676.31;5113165;28;20457;-69
2022/03/06 05:55:38;;;;;;;24.17;12.75;;;-2.60;84.60;;;-4.05;70.42;97668.09;5112803;28;20412;-70
2022/03/06 05:58:04;;;;;;;22.00;12.93;;;-2.50;84.40;;;-3.88;70.32;97674.19;5113049;28;20461;-69
2022/03/06 06:00:30;;;;;;;28.88;14.07;;;-2.40;84.40;;;-3.77;69.94;97668.75;5112556;28;20408;-69
2022/03/06 06:02:56;;;;;;;28.07;13.67;;;-2.30;84.10;;;-3.78;69.60;97666.31;5112982;28;20460;-70
2022/03/06 06:05:24;;;;;;;23.30;12.60;;;-2.30;83.80;;;-3.80;69.80;97674.22;5113120;28;20392;-69
2022/03/06 06:07:51;;;;;;;22.93;12.60;;;-2.30;83.60;;;-3.73;69.97;97670.06;5112836;28;20873;-69
2022/03/06 06:10:18;;;;;;;25.00;13.90;;;-2.30;83.60;;;-3.63;69.47;97681.13;5112401;28;20531;-70
2022/03/06 06:12:45;;;;;;;25.27;14.00;;;-2.20;83.50;;;-3.63;69.46;97669.94;5112748;28;20423;-69
2022/03/06 06:15:12;;;;;;;26.67;13.77;;;-2.20;83.40;;;-3.64;69.52;97673.50;5112670;28;20408;-70
2022/03/06 06:17:38;;;;;;;26.02;13.85;;;-2.20;83.40;;;-3.64;69.94;97663.97;5112605;28;20403;-69
2022/03/06 06:20:07;;;;;;;25.02;13.68;;;-2.20;83.60;;;-3.64;69.60;97670.91;5112396;28;20923;-69
2022/03/06 06:22:35;;;;;;;27.27;15.00;;;-2.20;83.50;;;-3.61;70.02;97670.63;5112465;28;20397;-70
2022/03/06 06:25:02;;;;;;;25.98;13.65;;;-2.20;83.70;;;-3.70;69.83;97672.34;5112600;28;20424;-70
2022/03/06 06:27:28;;;;;;;27.63;14.77;;;-2.20;83.70;;;-3.61;69.83;97673.19;5112296;28;20396;-69
2022/03/06 06:29:54;;;;;;;28.90;14.63;;;-2.20;83.80;;;-3.67;69.79;97674.59;5112224;28;20776;-70
2022/03/06 06:32:21;;;;;;;23.15;13.27;;;-2.20;84.00;;;-3.83;69.60;97677.09;5110752;28;20781;-70
2022/03/06 06:34:47;;;;;;;29.70;15.43;;;-2.30;83.70;;;-3.77;70.23;97673.94;5112296;28;20822;-69
2022/03/06 06:37:14;;;;;;;25.15;13.27;;;-2.30;84.20;;;-3.80;70.42;97671.66;5112313;28;20748;-70
2022/03/06 06:39:42;;;;;;;26.88;15.18;;;-2.30;84.20;;;-3.73;70.48;97677.00;5112049;28;20898;-75
2022/03/06 06:42:08;;;;;;;28.60;13.63;;;-2.20;84.80;;;-3.77;70.65;97673.94;5111727;28;20398;-72
2022/03/06 06:44:34;;;;;;;24.63;13.75;;;-2.30;84.50;;;-3.76;70.10;97672.16;5112028;28;20393;-72
2022/03/06 06:47:01;;;;;;;27.15;14.30;;;-2.30;84.40;;;-3.68;70.45;97682.50;5112218;28;20762;-72
2022/03/06 06:49:27;;;;;;;26.50;14.35;;;-2.30;84.50;;;-3.67;70.72;97690.13;5111701;28;20403;-72
2022/03/06 06:51:53;;;;;;;23.27;13.27;;;-2.20;84.80;;;-3.68;70.05;97692.88;5109710;27;20412;-72
2022/03/06 06:54:19;;;;;;;26.23;14.50;;;-2.20;84.50;;;-3.62;70.43;97690.50;5106380;28;20467;-72
2022/03/06 06:56:46;;;;;;;30.67;15.63;;;-2.10;84.90;;;-3.51;70.42;97681.63;5108080;28;20734;-73
2022/03/06 06:59:13;;;;;;;25.05;14.65;;;-2.10;84.90;;;-3.50;70.67;97693.63;5111568;28;20396;-72
2022/03/06 07:01:39;;;;;;;27.92;14.73;;;-2.00;85.00;;;-3.42;70.57;97690.25;5111478;28;20396;-75
2022/03/06 07:04:05;;;;;;;28.95;15.30;;;-2.00;84.70;;;-3.34;70.41;97688.50;5111838;28;20389;-74
2022/03/06 07:06:31;;;;;;;32.72;15.65;;;-1.90;84.60;;;-3.22;69.73;97683.84;5111695;28;20850;-75
2022/03/06 07:08:57;;;;;;;31.48;15.32;;;-1.80;84.50;;;-3.16;70.16;97688.41;5110750;28;20392;-73
2022/03/06 07:11:23;;;;;;;24.60;13.90;;;-1.80;84.40;;;-3.12;70.03;97695.69;5111244;28;20904;-73
2022/03/06 07:13:50;;;;;;;28.25;15.00;;;-1.70;84.20;;;-2.99;69.45;97694.41;5111555;28;20522;-74
2022/03/06 07:16:16;;;;;;;23.60;13.52;;;-1.60;84.10;;;-2.91;69.64;97697.03;5111590;28;20400;-74
2022/03/06 07:18:42;;;;;;;25.77;13.57;;;-1.50;83.80;;;-2.82;69.27;97696.91;5111553;28;20771;-76
2022/03/06 07:21:09;;;;;;;26.17;13.98;;;-1.40;83.60;;;-2.72;68.89;97703.72;5109976;28;20451;-74
2022/03/06 07:23:34;;;;;;;22.40;12.45;;;-1.40;83.30;;;-2.65;68.56;97700.34;5106109;28;20396;-73
2022/03/06 07:26:00;;;;;;;22.10;12.60;;;-1.30;82.90;;;-2.56;68.23;97703.75;5109538;27;21043;-73
2022/03/06 07:28:26;;;;;;;19.87;12.00;;;-1.20;82.70;;;-2.46;68.45;97706.97;5090975;28;20983;-71
2022/03/06 07:30:53;;;;;;;23.10;12.52;;;-1.10;82.50;;;-2.38;67.67;97705.19;5091833;28;20408;-71
2022/03/06 07:33:19;;;;;;;20.40;12.18;;;-1.00;83.00;;;-2.29;67.42;97703.44;5119895;27;20405;-71
2022/03/06 07:35:45;;;;;;;23.00;12.70;;;-0.90;81.90;;;-2.20;67.11;97702.47;5114766;27;20494;-70
2022/03/06 07:38:11;;;;;;;20.13;11.95;;;-0.80;81.60;;;-2.11;66.97;97709.25;5131529;27;20397;-69
2022/03/06 07:40:37;;;;;;;21.45;12.30;;;-0.80;81.30;;;-2.02;66.62;97700.47;5117668;27;20770;-70
2022/03/06 07:43:03;;;;;;;22.17;12.13;;;-0.70;81.10;;;-1.91;66.65;97711.50;5113053;27;20411;-69
2022/03/06 07:45:29;;;;;;;21.38;12.88;;;-0.60;80.80;;;-1.83;66.25;97704.50;5110607;28;20392;-70
2022/03/06 07:47:56;;;;;;;24.00;14.00;;;-0.50;80.60;;;-1.72;66.03;97706.75;5113834;27;20470;-69
2022/03/06 07:50:23;;;;;;;23.77;13.05;;;-0.40;80.40;;;-1.64;65.85;97711.09;5107830;27;20893;-69
2022/03/06 07:52:49;;;;;;;21.88;12.52;;;-0.30;80.10;;;-1.58;65.91;97707.88;5110562;27;21168;-69
2022/03/06 07:55:15;;;;;;;21.15;13.02;;;-0.30;79.70;;;-1.49;65.68;97717.22;5111195;28;20419;-69
2022/03/06 07:57:41;;;;;;;23.95;14.05;;;-0.20;79.60;;;-1.42;65.23;97715.59;5111704;27;20398;-69
2022/03/06 08:00:10;;;;;;;21.73;12.63;;;-0.10;79.40;;;-1.35;65.33;97710.53;5090082;28;20394;-69
2022/03/06 08:02:36;;;;;;;27.10;14.95;;;-0.10;79.30;;;-1.27;65.25;97718.28;5103550;28;20400;-73
2022/03/06 08:05:04;;;;;;;21.92;13.35;;;0.00;79.30;;;-1.19;64.87;97716.47;5103970;28;20480;-73
2022/03/06 08:07:30;;;;;;;22.77;13.52;;;0.10;79.00;;;-1.11;64.71;97718.22;5099987;28;20485;-71
2022/03/06 08:09:56;;;;;;;23.38;13.65;;;0.20;78.70;;;-1.04;64.86;97715.75;5102167;28;20979;-71
2022/03/06 08:12:24;;;;;;;22.48;13.15;;;0.30;78.50;;;-0.97;64.31;97722.72;5102834;28;20410;-73
2022/03/06 08:14:50;;;;;;;21.25;12.10;;;0.30;78.30;;;-0.90;64.43;97726.25;5102453;28;20427;-71
2022/03/06 08:17:17;;;;;;;18.42;11.63;;;0.40;78.00;;;-0.82;64.03;97725.38;5117567;28;20404;-76
2022/03/06 08:19:43;;;;;;;19.00;11.27;;;0.40;77.70;;;-0.74;64.10;97719.34;5112463;28;20793;-74
2022/03/06 08:22:11;;;;;;;22.73;13.27;;;0.50;77.60;;;-0.68;63.78;97722.09;5090104;28;20420;-75
2022/03/06 08:24:37;;;;;;;22.35;12.25;;;0.60;77.60;;;-0.60;63.91;97722.00;5109124;28;20412;-75
2022/03/06 08:27:03;;;;;;;18.27;11.38;;;0.70;77.30;;;-0.54;63.42;97718.75;5109627;28;20392;-74
2022/03/06 08:29:29;;;;;;;21.83;12.15;;;0.70;77.00;;;-0.46;63.47;97718.69;5105832;28;20389;-73
2022/03/06 08:31:55;;;;;;;21.08;12.50;;;0.80;76.90;;;-0.40;63.16;97725.78;5104979;28;20466;-73
2022/03/06 08:34:21;;;;;;;21.48;12.07;;;0.80;76.60;;;-0.31;62.82;97728.34;5103445;28;20906;-78
2022/03/06 08:36:47;;;;;;;19.20;11.68;;;0.90;76.40;;;-0.23;62.59;97728.28;5103696;28;20403;-74
2022/03/06 08:39:14;;;;;;;23.55;13.68;;;1.00;76.20;;;-0.19;62.22;97726.94;5106765;28;20469;-76
2022/03/06 08:41:40;;;;;;;24.17;14.45;;;1.10;75.80;;;-0.12;62.00;97722.66;5113009;27;20499;-76
2022/03/06 08:44:06;;;;;;;22.65;12.68;;;1.10;75.30;;;-0.06;62.05;97717.53;5114129;27;20425;-78
2022/03/06 08:46:32;;;;;;;22.73;13.70;;;1.20;75.20;;;-0.01;61.44;97722.25;5109426;28;20398;-76
2022/03/06 08:48:58;;;;;;;22.30;13.57;;;1.20;74.80;;;0.07;61.48;97723.97;5100772;28;20457;-77
2022/03/06 08:51:24;;;;;;;21.55;13.10;;;1.20;74.60;;;0.12;61.21;97719.84;5114726;28;20429;-81
2022/03/06 08:53:50;;;;;;;20.40;11.90;;;1.30;74.50;;;0.19;61.54;97720.75;5125243;27;20387;-80
2022/03/06 08:56:17;;;;;;;17.67;11.50;;;1.40;74.40;;;0.25;61.33;97714.00;5135497;27;20815;-82
2022/03/06 08:58:43;;;;;;;20.88;12.68;;;1.40;74.20;;;0.30;61.41;97720.31;5135037;27;20423;-79
2022/03/06 09:01:09;;;;;;;22.00;13.25;;;1.50;74.20;;;0.35;60.79;97712.78;5134590;27;20534;-80
2022/03/06 09:03:35;;;;;;;21.35;12.98;;;1.50;73.80;;;0.39;60.55;97716.63;5134959;27;20390;-75
2022/03/06 09:06:01;;;;;;;20.17;12.00;;;1.60;73.60;;;0.48;60.73;97708.75;5134792;27;20773;-74
2022/03/06 09:08:27;;;;;;;20.60;12.02;;;1.60;73.40;;;0.56;60.46;97708.66;5134688;27;20399;-75
2022/03/06 09:10:53;;;;;;;20.83;11.90;;;1.70;73.30;;;0.61;60.46;97704.50;5134205;27;20463;-75
2022/03/06 09:13:20;;;;;;;24.60;13.55;;;1.80;73.10;;;0.70;60.42;97707.84;5134672;27;20886;-75
2022/03/06 09:15:46;;;;;;;21.42;12.43;;;1.90;73.10;;;0.80;60.20;97715.38;5119992;27;20415;-79
2022/03/06 09:18:12;;;;;;;24.65;13.48;;;1.90;72.80;;;0.87;59.90;97705.84;5104308;28;20865;-78
2022/03/06 09:20:38;;;;;;;24.73;13.77;;;2.00;72.30;;;0.96;59.51;97713.41;5103778;28;20918;-75
2022/03/06 09:23:07;;;;;;;19.10;11.82;;;2.10;72.20;;;1.06;59.13;97710.47;5102104;28;20834;-75
2022/03/06 09:25:33;;;;;;;20.70;12.27;;;2.20;71.90;;;1.14;59.22;97712.97;5102802;28;20491;-75
2022/03/06 09:27:59;;;;;;;22.92;12.95;;;2.30;71.60;;;1.17;58.33;97710.03;5103964;28;20408;-75
2022/03/06 09:30:27;;;;;;;19.13;11.27;;;2.30;70.80;;;1.26;58.42;97714.16;5101217;28;20398;-75
2022/03/06 09:32:54;;;;;;;23.40;13.02;;;2.40;70.80;;;1.31;57.67;97714.38;5104593;28;20802;-75
2022/03/06 09:35:20;;;;;;;19.17;11.80;;;2.40;70.10;;;1.38;57.68;97712.66;5108886;28;20468;-76
2022/03/06 09:37:46;;;;;;;19.63;12.32;;;2.50;69.80;;;1.41;57.37;97719.31;5100079;28;20409;-76
2022/03/06 09:40:12;;;;;;;18.35;11.27;;;2.50;69.30;;;1.48;56.94;97707.97;5098636;28;20413;-76
2022/03/06 09:42:38;;;;;;;18.83;11.47;;;2.60;69.10;;;1.57;57.01;97707.84;5102172;28;20476;-75
2022/03/06 09:45:08;;;;;;;17.45;11.18;;;2.70;68.90;;;1.64;57.04;97714.75;5101669;28;20396;-75
2022/03/06 09:47:37;;;;;;;17.23;10.97;;;2.70;68.70;;;1.72;56.33;97700.75;5104235;28;20501;-73
2022/03/06 09:50:05;;;;;;;22.42;13.30;;;2.80;68.40;;;1.77;55.92;97708.81;5103789;28;20483;-73
2022/03/06 09:52:31;;;;;;;19.30;11.68;;;2.90;67.70;;;1.87;55.48;97712.75;5092026;28;20402;-73
2022/03/06 09:54:57;;;;;;;17.90;11.48;;;3.00;67.40;;;1.98;55.40;97706.19;5091594;28;20405;-73
2022/03/06 09:57:23;;;;;;;21.10;11.70;;;3.00;67.00;;;2.01;55.01;97705.00;5092586;28;20398;-72
2022/03/06 09:59:50;;;;;;;18.77;11.35;;;3.10;66.50;;;2.12;54.64;97707.09;5092603;28;20406;-74
2022/03/06 10:02:16;;;;;;;18.07;11.10;;;3.20;66.10;;;2.25;54.43;97700.19;5092263;28;20394;-75
2022/03/06 10:04:46;;;;;;;20.40;12.57;;;3.30;65.70;;;2.48;54.03;97696.50;5092656;28;20394;-77